Time;durP1;ratioP1;P1;durP2;ratioP2;P2;SDS_P1;SDS_P2;PMS_P1;PMS_P2;Temp;Humidity;BMP_temperature;BMP_pressure;BME280_temperature;BME280_humidity;BME280_pressure;Samples;Min_cycle;Max_cycle;Signal;HPM_P1;HPM_P2
2021/03/30 00:00:03;;;;;;;4.93;2.30;;;6.60;82.10;;;;;;4975955;28;20172;-77
2021/03/30 00:02:29;;;;;;;3.93;2.50;;;6.60;82.20;;;;;;4976055;28;20172;-77
2021/03/30 00:04:55;;;;;;;3.27;2.43;;;6.60;82.40;;;;;;4975683;28;20665;-77
2021/03/30 00:07:20;;;;;;;5.00;2.87;;;6.60;82.40;;;;;;4975827;28;20209;-77
2021/03/30 00:09:46;;;;;;;4.40;3.00;;;6.60;82.70;;;;;;4975108;28;20219;-77
2021/03/30 00:12:12;;;;;;;3.23;2.40;;;6.60;82.70;;;;;;4976141;28;20242;-77
2021/03/30 00:14:37;;;;;;;6.43;2.63;;;6.50;82.60;;;;;;4976740;28;20758;-77
2021/03/30 00:17:03;;;;;;;3.37;2.93;;;6.50;82.80;;;;;;4975812;28;20196;-77
2021/03/30 00:19:29;;;;;;;3.87;2.40;;;6.50;83.00;;;;;;4975505;28;20195;-77
2021/03/30 00:21:55;;;;;;;4.33;2.30;;;6.50;84.00;;;;;;4976885;28;20574;-77
2021/03/30 00:24:20;;;;;;;7.83;2.70;;;6.40;83.30;;;;;;4974706;28;20244;-77
2021/03/30 00:26:46;;;;;;;3.47;2.60;;;6.40;83.40;;;;;;4975461;28;20268;-77
2021/03/30 00:29:11;;;;;;;5.83;2.47;;;6.40;83.30;;;;;;4974359;28;20263;-77
2021/03/30 00:31:37;;;;;;;6.10;2.70;;;6.40;83.50;;;;;;4975456;28;20643;-77
2021/03/30 00:34:03;;;;;;;5.77;2.80;;;6.40;83.50;;;;;;4974027;28;20252;-77
2021/03/30 00:36:29;;;;;;;7.13;2.43;;;6.30;83.60;;;;;;4974011;28;20198;-77
2021/03/30 00:38:54;;;;;;;7.00;2.37;;;6.30;83.80;;;;;;4975405;28;20224;-77
2021/03/30 00:41:20;;;;;;;4.23;2.47;;;6.30;83.80;;;;;;4975455;28;20170;-77
2021/03/30 00:43:45;;;;;;;4.23;2.67;;;6.30;83.70;;;;;;4975477;28;20565;-77
2021/03/30 00:46:18;;;;;;;3.87;2.07;;;6.30;84.60;;;;;;4974982;28;20606;-77
2021/03/30 00:48:50;;;;;;;4.70;2.50;;;6.20;83.90;;;;;;4975647;28;20209;-77
2021/03/30 00:51:17;;;;;;;5.83;2.97;;;6.20;84.00;;;;;;4974115;28;20178;-77
2021/03/30 00:53:43;;;;;;;4.17;2.70;;;6.20;84.40;;;;;;4973690;28;20672;-77
2021/03/30 00:56:09;;;;;;;7.70;3.10;;;6.20;84.60;;;;;;4975001;28;20219;-77
2021/03/30 00:58:35;;;;;;;11.70;6.13;;;6.20;84.60;;;;;;4973895;28;20177;-77
2021/03/30 01:01:01;;;;;;;19.93;9.10;;;6.10;84.50;;;;;;4974981;28;20177;-77
2021/03/30 01:03:27;;;;;;;35.70;13.77;;;6.10;84.50;;;;;;4975085;28;20216;-77
2021/03/30 01:05:53;;;;;;;49.73;18.90;;;6.10;84.50;;;;;;4974743;28;20228;-77
2021/03/30 01:08:40;;;;;;;54.10;19.87;;;6.00;85.20;;;;;;4973859;28;20204;-77
2021/03/30 01:11:21;;;;;;;28.00;8.97;;;6.10;84.50;;;;;;4975015;28;20178;-78
2021/03/30 01:14:27;;;;;;;42.10;19.70;;;6.10;84.50;;;;;;4975011;28;20285;-77
2021/03/30 01:17:12;;;;;;;19.83;11.10;;;6.10;84.70;;;;;;4968807;28;20205;-77
2021/03/30 01:20:13;;;;;;;11.93;6.27;;;6.00;85.00;;;;;;4975212;28;20169;-77
2021/03/30 01:23:06;;;;;;;11.10;6.87;;;6.00;85.70;;;;;;4973862;28;20305;-77
2021/03/30 01:25:36;;;;;;;7.20;4.10;;;5.90;85.80;;;;;;4974753;28;20560;-77
2021/03/30 01:28:03;;;;;;;5.03;3.70;;;5.90;86.40;;;;;;4975366;28;20628;-77
2021/03/30 01:30:33;;;;;;;6.27;3.10;;;5.80;86.70;;;;;;4973610;28;20192;-77
2021/03/30 01:33:02;;;;;;;5.07;2.67;;;5.80;87.10;;;;;;4975339;28;20211;-77
2021/03/30 01:35:29;;;;;;;4.53;2.93;;;5.80;87.70;;;;;;4978129;28;20197;-77
2021/03/30 01:37:56;;;;;;;3.20;2.40;;;5.70;87.80;;;;;;4977161;28;20174;-77
2021/03/30 01:40:33;;;;;;;3.87;2.63;;;5.70;88.00;;;;;;4977072;28;20177;-77
2021/03/30 01:43:01;;;;;;;3.97;2.50;;;5.70;88.30;;;;;;4978304;28;20166;-77
2021/03/30 01:45:27;;;;;;;8.77;2.40;;;5.70;88.70;;;;;;4977787;28;20205;-77
2021/03/30 01:47:55;;;;;;;3.37;2.10;;;5.60;88.90;;;;;;4976810;28;20186;-77
2021/03/30 01:50:21;;;;;;;2.93;2.13;;;5.60;89.20;;;;;;4978256;28;20175;-77
2021/03/30 01:52:48;;;;;;;4.30;2.30;;;5.50;89.70;;;;;;4976670;28;20203;-77
2021/03/30 01:55:15;;;;;;;3.97;2.10;;;5.50;90.00;;;;;;4977587;28;20198;-77
2021/03/30 01:57:46;;;;;;;4.37;2.43;;;5.50;90.10;;;;;;4976634;28;20198;-77
2021/03/30 02:00:13;;;;;;;3.67;2.30;;;5.40;90.20;;;;;;4977804;28;20678;-77
2021/03/30 02:02:42;;;;;;;4.87;2.43;;;5.40;90.30;;;;;;4976298;28;20210;-77
2021/03/30 02:05:09;;;;;;;7.77;2.33;;;5.40;90.30;;;;;;4976073;28;20190;-78
2021/03/30 02:07:36;;;;;;;2.47;2.03;;;5.40;90.40;;;;;;4976102;28;20272;-77
2021/03/30 02:10:08;;;;;;;3.57;2.27;;;5.40;90.60;;;;;;4976339;28;20191;-77
2021/03/30 02:12:40;;;;;;;5.77;2.17;;;5.40;90.80;;;;;;4976496;28;20201;-77
2021/03/30 02:15:09;;;;;;;4.67;2.40;;;5.30;90.50;;;;;;4977374;28;20157;-77
2021/03/30 02:18:05;;;;;;;4.27;2.17;;;5.30;90.80;;;;;;4977382;28;20602;-77
2021/03/30 02:20:38;;;;;;;7.13;2.50;;;5.30;90.90;;;;;;4977464;28;20157;-77
2021/03/30 02:23:11;;;;;;;3.57;1.97;;;5.30;90.80;;;;;;4977298;28;20166;-77
2021/03/30 02:25:39;;;;;;;5.10;2.20;;;5.30;90.70;;;;;;4976936;28;20271;-77
2021/03/30 02:28:09;;;;;;;3.90;1.90;;;5.30;91.10;;;;;;4977099;28;20184;-77
2021/03/30 02:30:36;;;;;;;3.30;1.93;;;5.20;91.00;;;;;;4976019;28;20177;-77
2021/03/30 02:33:05;;;;;;;2.90;2.40;;;5.30;90.90;;;;;;4976932;28;20205;-77
2021/03/30 02:35:32;;;;;;;4.27;2.77;;;5.30;90.80;;;;;;4977113;28;20189;-77
2021/03/30 02:38:01;;;;;;;4.97;2.13;;;5.30;90.80;;;;;;4977619;28;20188;-77
2021/03/30 02:40:27;;;;;;;3.97;2.23;;;5.30;90.70;;;;;;4977193;28;20654;-77
2021/03/30 02:42:54;;;;;;;3.57;2.10;;;5.30;90.80;;;;;;4976868;28;20177;-77
2021/03/30 02:45:25;;;;;;;5.40;2.30;;;5.30;91.10;;;;;;4976830;28;20658;-77
2021/03/30 02:47:52;;;;;;;3.77;2.37;;;5.20;91.40;;;;;;4977219;28;20162;-77
2021/03/30 02:50:21;;;;;;;6.20;2.73;;;5.10;91.80;;;;;;4975810;28;20584;-77
2021/03/30 02:52:47;;;;;;;4.17;2.23;;;5.00;92.10;;;;;;4976878;28;20212;-77
2021/03/30 02:55:14;;;;;;;3.40;2.43;;;5.00;92.30;;;;;;4975281;28;20267;-77
2021/03/30 02:57:40;;;;;;;3.33;2.20;;;4.90;92.50;;;;;;4977158;28;20189;-77
2021/03/30 03:00:11;;;;;;;4.77;2.17;;;4.90;92.70;;;;;;4976466;28;20533;-77
2021/03/30 03:02:38;;;;;;;7.93;1.90;;;4.80;92.80;;;;;;4975181;28;20293;-77
2021/03/30 03:05:08;;;;;;;4.07;2.50;;;4.80;93.00;;;;;;4976424;28;20180;-77
2021/03/30 03:07:39;;;;;;;6.07;2.20;;;4.80;93.30;;;;;;4976394;28;20761;-77
2021/03/30 03:10:07;;;;;;;4.23;2.67;;;4.70;93.30;;;;;;4975069;28;20176;-77
2021/03/30 03:12:36;;;;;;;4.07;2.43;;;4.70;93.50;;;;;;4976157;28;20202;-77
2021/03/30 03:15:03;;;;;;;3.47;2.10;;;4.70;93.50;;;;;;4976071;28;20174;-77
2021/03/30 03:17:30;;;;;;;4.47;2.17;;;4.70;93.80;;;;;;4976165;28;20181;-77
2021/03/30 03:19:57;;;;;;;3.57;2.10;;;4.70;93.80;;;;;;4976184;28;20641;-77
2021/03/30 03:22:23;;;;;;;3.63;1.93;;;4.70;93.70;;;;;;4975978;28;20168;-77
2021/03/30 03:24:51;;;;;;;3.83;2.33;;;4.80;93.60;;;;;;4974894;28;20661;-77
2021/03/30 03:27:17;;;;;;;3.33;2.00;;;4.90;96.60;;;;;;4976039;28;20207;-77
2021/03/30 03:29:43;;;;;;;5.17;2.57;;;4.80;93.30;;;;;;4975978;28;20172;-77
2021/03/30 03:32:09;;;;;;;2.60;1.90;;;4.80;93.40;;;;;;4976030;28;20195;-77
2021/03/30 03:34:38;;;;;;;5.90;2.10;;;4.80;93.40;;;;;;4974511;28;20176;-77
2021/03/30 03:37:05;;;;;;;3.93;2.10;;;4.70;93.20;;;;;;4975669;28;20196;-77
2021/03/30 03:39:31;;;;;;;5.67;2.33;;;4.70;93.70;;;;;;4975728;28;20195;-77
2021/03/30 03:41:57;;;;;;;3.17;2.27;;;4.70;93.90;;;;;;4975199;28;20254;-77
2021/03/30 03:44:26;;;;;;;4.80;2.60;;;4.60;94.00;;;;;;4974740;28;20235;-77
2021/03/30 03:46:52;;;;;;;2.37;2.07;;;4.60;94.20;;;;;;4974444;28;20535;-77
2021/03/30 03:49:18;;;;;;;4.00;2.17;;;4.50;94.40;;;;;;4974703;28;20211;-77
2021/03/30 03:51:48;;;;;;;3.90;2.30;;;4.50;94.60;;;;;;4974536;28;20184;-77
2021/03/30 03:54:17;;;;;;;4.93;2.00;;;4.50;94.70;;;;;;4975551;28;20286;-77
2021/03/30 03:56:46;;;;;;;4.23;2.60;;;4.40;95.00;;;;;;4973993;28;20212;-77
2021/03/30 03:59:20;;;;;;;3.10;2.23;;;4.30;95.10;;;;;;4975370;28;20176;-77
2021/03/30 04:02:19;;;;;;;6.10;2.13;;;4.30;95.30;;;;;;4974348;28;20242;-77
2021/03/30 04:05:10;;;;;;;5.33;1.80;;;4.40;95.20;;;;;;4963467;28;20195;-77
2021/03/30 04:08:03;;;;;;;3.67;1.80;;;4.40;95.40;;;;;;4975316;28;20256;-77
2021/03/30 04:10:32;;;;;;;3.53;2.17;;;4.40;95.60;;;;;;4975289;28;20244;-77
2021/03/30 04:12:59;;;;;;;3.77;2.10;;;4.30;95.70;;;;;;4975207;28;20204;-77
2021/03/30 04:15:25;;;;;;;4.13;2.13;;;4.30;95.70;;;;;;4974976;28;20215;-77
2021/03/30 04:17:51;;;;;;;2.37;1.80;;;4.30;95.70;;;;;;4975187;28;20169;-77
2021/03/30 04:20:21;;;;;;;7.83;2.30;;;4.30;95.70;;;;;;4975392;28;20652;-77
2021/03/30 04:22:59;;;;;;;4.37;2.20;;;4.30;96.00;;;;;;4977475;28;20296;-80
2021/03/30 04:25:26;;;;;;;4.50;2.30;;;4.30;99.90;;;;;;4977489;28;20219;-78
2021/03/30 04:27:52;;;;;;;3.83;2.23;;;4.20;96.80;;;;;;4976975;28;20529;-78
2021/03/30 04:30:19;;;;;;;5.47;2.00;;;4.20;96.80;;;;;;4975995;28;20195;-77
2021/03/30 04:32:45;;;;;;;4.10;2.20;;;4.10;97.00;;;;;;4975367;28;20207;-78
2021/03/30 04:35:11;;;;;;;3.70;2.50;;;4.00;97.30;;;;;;4979638;28;20196;-78
2021/03/30 04:37:38;;;;;;;5.83;2.27;;;4.00;97.60;;;;;;4977606;28;20176;-80
2021/03/30 04:40:06;;;;;;;5.03;2.37;;;4.00;98.10;;;;;;4979803;28;20520;-78
2021/03/30 04:42:32;;;;;;;4.30;2.30;;;3.90;98.30;;;;;;4977956;28;20186;-79
2021/03/30 04:44:58;;;;;;;4.00;2.00;;;3.90;98.70;;;;;;4976298;28;20657;-78
2021/03/30 04:47:24;;;;;;;7.47;2.30;;;3.90;98.60;;;;;;4975691;28;20188;-77
2021/03/30 04:49:50;;;;;;;6.17;2.10;;;3.90;98.50;;;;;;4975303;28;20196;-78
2021/03/30 04:52:16;;;;;;;7.50;2.37;;;4.00;98.40;;;;;;4973709;28;20191;-78
2021/03/30 04:54:42;;;;;;;4.03;2.20;;;4.00;98.10;;;;;;4976037;28;20172;-77
2021/03/30 04:57:08;;;;;;;4.63;1.90;;;4.00;98.10;;;;;;4977376;28;20655;-78
2021/03/30 04:59:34;;;;;;;4.10;2.10;;;4.00;98.10;;;;;;4975992;28;20177;-77
2021/03/30 05:01:59;;;;;;;7.10;2.43;;;4.00;98.10;;;;;;4973958;28;20308;-78
2021/03/30 05:04:25;;;;;;;3.50;2.10;;;4.00;98.30;;;;;;4973172;28;20243;-77
2021/03/30 05:06:51;;;;;;;7.87;2.03;;;3.90;98.40;;;;;;4974799;28;20686;-77
2021/03/30 05:09:16;;;;;;;3.27;2.07;;;4.00;98.50;;;;;;4978209;28;20593;-77
2021/03/30 05:11:42;;;;;;;4.37;2.43;;;3.90;98.70;;;;;;4978614;28;20176;-77
2021/03/30 05:14:07;;;;;;;6.00;2.10;;;3.90;99.00;;;;;;4978471;28;20794;-78
2021/03/30 05:16:33;;;;;;;3.37;2.00;;;3.90;99.10;;;;;;4978305;28;20189;-77
2021/03/30 05:18:59;;;;;;;4.83;2.27;;;3.90;99.20;;;;;;4978486;28;20203;-78
2021/03/30 05:21:25;;;;;;;4.40;1.80;;;3.90;99.30;;;;;;4977408;28;20187;-78
2021/03/30 05:23:50;;;;;;;5.30;1.93;;;3.90;99.50;;;;;;4978922;28;20203;-78
2021/03/30 05:26:16;;;;;;;6.90;1.80;;;3.90;99.50;;;;;;4978465;28;20203;-78
2021/03/30 05:28:42;;;;;;;6.37;2.00;;;3.80;99.30;;;;;;4978258;28;20539;-78
2021/03/30 05:31:08;;;;;;;5.03;2.33;;;3.90;99.10;;;;;;4978939;28;20188;-77
2021/03/30 05:33:34;;;;;;;4.07;2.47;;;4.00;99.00;;;;;;4975915;28;20196;-77
2021/03/30 05:35:59;;;;;;;3.20;1.70;;;4.10;98.90;;;;;;4976428;28;20211;-77
2021/03/30 05:38:25;;;;;;;4.40;1.90;;;4.20;98.60;;;;;;4976903;28;20179;-78
2021/03/30 05:40:51;;;;;;;6.07;2.13;;;4.20;98.50;;;;;;4976107;28;20384;-77
2021/03/30 05:43:17;;;;;;;5.83;2.07;;;4.20;98.40;;;;;;4977518;28;20208;-78
2021/03/30 05:45:43;;;;;;;3.07;1.90;;;4.30;98.20;;;;;;4977131;28;20197;-77
2021/03/30 05:48:14;;;;;;;3.87;1.83;;;4.40;97.70;;;;;;4976187;28;20186;-77
2021/03/30 05:50:40;;;;;;;5.97;1.90;;;4.50;97.40;;;;;;4977740;28;20161;-77
2021/03/30 05:53:12;;;;;;;2.50;2.13;;;4.60;97.30;;;;;;4977895;28;20197;-77
2021/03/30 05:55:40;;;;;;;9.53;2.00;;;4.50;97.00;;;;;;4977644;28;20250;-78
2021/03/30 05:58:07;;;;;;;8.13;2.50;;;4.60;97.00;;;;;;4977927;28;20157;-77
2021/03/30 06:00:35;;;;;;;5.73;2.30;;;4.60;97.00;;;;;;4977428;28;20689;-78
2021/03/30 06:03:04;;;;;;;3.10;1.77;;;4.70;96.80;;;;;;4977727;28;20177;-77
2021/03/30 06:05:30;;;;;;;4.70;1.93;;;4.70;96.50;;;;;;4977708;28;20196;-78
2021/03/30 06:08:01;;;;;;;3.60;2.00;;;4.80;96.30;;;;;;4976212;28;20184;-78
2021/03/30 06:10:29;;;;;;;3.70;1.63;;;4.80;96.30;;;;;;4976201;28;20209;-78
2021/03/30 06:12:55;;;;;;;6.37;2.20;;;4.90;96.10;;;;;;4977943;28;20675;-77
2021/03/30 06:15:27;;;;;;;4.43;2.03;;;5.00;96.00;;;;;;4978576;28;20239;-77
2021/03/30 06:17:53;;;;;;;4.10;2.13;;;5.10;95.60;;;;;;4975488;28;20255;-77
2021/03/30 06:20:45;;;;;;;2.23;1.63;;;5.20;95.10;;;;;;4975813;28;20324;-78
2021/03/30 06:23:11;;;;;;;6.40;2.07;;;5.40;94.80;;;;;;4975101;28;20203;-78
2021/03/30 06:25:49;;;;;;;4.17;2.17;;;5.60;94.10;;;;;;4976747;28;20197;-77
2021/03/30 06:28:20;;;;;;;2.77;1.80;;;5.70;93.60;;;;;;4977007;28;20164;-77
2021/03/30 06:30:56;;;;;;;4.20;1.73;;;5.90;92.80;;;;;;4977001;28;20173;-78
2021/03/30 06:33:22;;;;;;;2.60;1.80;;;6.10;92.00;;;;;;4975861;28;20197;-78
2021/03/30 06:35:48;;;;;;;3.37;1.60;;;6.20;91.70;;;;;;4976723;28;20200;-78
2021/03/30 06:38:14;;;;;;;4.53;2.20;;;6.40;91.40;;;;;;4975615;28;20204;-78
2021/03/30 06:40:41;;;;;;;7.13;2.27;;;6.60;91.50;;;;;;4976923;28;20526;-78
2021/03/30 06:46:07;;;;;;;5.57;1.60;;;7.00;89.50;;;;;;4976944;28;20247;-78
2021/03/30 06:48:34;;;;;;;6.73;2.10;;;7.10;88.30;;;;;;4976832;28;20524;-78
2021/03/30 06:51:20;;;;;;;12.83;2.07;;;7.30;88.00;;;;;;4975941;28;20187;-78
2021/03/30 06:53:46;;;;;;;3.23;1.80;;;7.50;87.00;;;;;;4977954;28;20201;-77
2021/03/30 06:56:12;;;;;;;4.57;2.10;;;7.60;85.40;;;;;;4975323;28;20213;-78
2021/03/30 06:58:57;;;;;;;5.70;1.77;;;7.80;84.70;;;;;;4976082;28;20664;-78
2021/03/30 07:01:24;;;;;;;5.83;1.90;;;8.00;83.50;;;;;;4976034;28;20185;-78
2021/03/30 07:03:51;;;;;;;4.67;1.63;;;8.30;81.60;;;;;;4977265;28;20181;-78
2021/03/30 07:06:17;;;;;;;2.17;1.67;;;8.50;80.50;;;;;;4976651;28;20198;-78
2021/03/30 07:08:44;;;;;;;2.43;1.70;;;8.60;79.30;;;;;;4977246;28;20291;-78
2021/03/30 07:11:11;;;;;;;4.23;1.80;;;8.70;77.60;;;;;;4975757;28;20189;-78
2021/03/30 07:13:37;;;;;;;3.97;1.80;;;8.90;77.00;;;;;;4977727;28;20198;-78
2021/03/30 07:16:22;;;;;;;3.80;1.77;;;9.20;75.80;;;;;;4977412;28;20193;-78
2021/03/30 07:18:50;;;;;;;1.97;1.83;;;9.40;74.70;;;;;;4979234;28;20211;-78
2021/03/30 07:21:42;;;;;;;3.37;1.77;;;9.70;72.70;;;;;;4977989;28;20223;-78
2021/03/30 07:24:11;;;;;;;4.43;1.80;;;10.00;70.40;;;;;;4977476;28;20195;-78
2021/03/30 07:26:53;;;;;;;2.50;1.70;;;10.40;69.70;;;;;;4980068;28;20229;-79
2021/03/30 07:29:30;;;;;;;5.10;1.50;;;10.90;68.80;;;;;;4979686;28;20179;-78
2021/03/30 07:32:08;;;;;;;5.57;2.63;;;11.50;67.40;;;;;;4979716;28;20221;-78
2021/03/30 07:35:01;;;;;;;9.40;2.50;;;11.70;66.60;;;;;;4980176;28;20160;-78
2021/03/30 07:37:39;;;;;;;3.73;1.60;;;11.80;65.10;;;;;;4981592;28;20188;-78
2021/03/30 07:40:07;;;;;;;2.57;1.53;;;11.90;64.70;;;;;;4982068;28;20187;-78
2021/03/30 07:42:36;;;;;;;3.53;1.70;;;12.20;64.20;;;;;;4980214;28;20192;-78
2021/03/30 07:45:02;;;;;;;8.33;1.77;;;12.50;62.10;;;;;;4979407;28;20192;-78
2021/03/30 07:47:28;;;;;;;8.60;1.73;;;12.80;61.30;;;;;;4980775;28;20177;-78
2021/03/30 07:49:55;;;;;;;4.33;1.57;;;13.20;60.30;;;;;;4980669;28;20259;-78
2021/03/30 07:52:28;;;;;;;9.97;1.93;;;13.80;59.10;;;;;;4979070;28;20235;-78
2021/03/30 07:55:23;;;;;;;6.53;2.30;;;14.20;58.20;;;;;;4980610;28;20609;-79
2021/03/30 07:58:06;;;;;;;4.67;1.60;;;14.80;57.70;;;;;;4979757;28;20191;-78
2021/03/30 08:00:31;;;;;;;5.70;2.33;;;15.50;54.50;;;;;;4981224;28;20262;-78
2021/03/30 08:02:59;;;;;;;3.43;1.47;;;15.90;53.60;;;;;;4981217;28;20760;-76
2021/03/30 08:05:31;;;;;;;3.93;1.40;;;16.30;52.80;;;;;;4980815;28;20193;-79
2021/03/30 08:07:57;;;;;;;4.20;1.63;;;16.80;51.50;;;;;;4982605;28;20647;-79
2021/03/30 08:10:34;;;;;;;3.67;1.40;;;16.70;50.80;;;;;;4984542;28;20200;-79
2021/03/30 08:13:32;;;;;;;4.93;1.40;;;16.70;51.50;;;;;;4978778;28;20219;-79
2021/03/30 08:16:02;;;;;;;3.03;1.50;;;17.50;49.90;;;;;;4975876;28;20647;-77
2021/03/30 08:18:33;;;;;;;2.60;1.20;;;18.00;47.90;;;;;;4977955;28;20178;-77
2021/03/30 08:21:10;;;;;;;6.07;1.80;;;18.50;47.60;;;;;;4979123;28;20173;-77
2021/03/30 08:23:51;;;;;;;5.23;1.43;;;19.10;46.60;;;;;;4980002;28;20214;-77
2021/03/30 08:26:32;;;;;;;6.53;1.80;;;19.40;46.10;;;;;;4977773;28;20683;-77
2021/03/30 08:29:04;;;;;;;2.80;1.40;;;19.40;45.30;;;;;;4977477;28;20168;-78
2021/03/30 08:31:42;;;;;;;4.03;1.60;;;19.40;44.70;;;;;;4976877;28;20261;-77
2021/03/30 08:34:37;;;;;;;4.47;1.57;;;19.50;45.60;;;;;;4976179;28;20203;-77
2021/03/30 08:37:09;;;;;;;4.77;1.60;;;20.00;44.00;;;;;;4977269;28;20537;-77
2021/03/30 08:39:36;;;;;;;2.80;1.50;;;20.20;42.90;;;;;;4978242;28;20163;-77
2021/03/30 08:42:05;;;;;;;9.03;1.80;;;20.40;43.50;;;;;;4980697;28;20697;-77
2021/03/30 08:44:38;;;;;;;3.50;1.50;;;21.00;44.50;;;;;;4981755;28;20173;-78
2021/03/30 08:47:05;;;;;;;5.67;1.70;;;21.90;45.80;;;;;;4981158;28;20605;-78
2021/03/30 08:49:40;;;;;;;4.37;1.70;;;21.90;43.30;;;;;;4982087;28;20175;-77
2021/03/30 08:52:12;;;;;;;1.90;1.50;;;22.20;45.50;;;;;;4980853;28;20181;-78
2021/03/30 08:57:13;;;;;;;3.50;1.70;;;22.30;45.80;;;;;;4982015;28;20680;-77
2021/03/30 08:59:40;;;;;;;3.77;2.10;;;22.10;47.40;;;;;;4981822;28;20245;-78
2021/03/30 09:02:11;;;;;;;7.10;3.03;;;22.30;48.70;;;;;;4981547;28;20207;-78
2021/03/30 09:04:44;;;;;;;4.00;2.20;;;22.10;48.30;;;;;;4981753;28;20160;-78
2021/03/30 09:07:10;;;;;;;7.97;2.50;;;21.70;49.00;;;;;;4980022;28;20203;-78
2021/03/30 09:09:37;;;;;;;6.77;2.13;;;21.60;51.60;;;;;;4983516;28;20175;-77
2021/03/30 09:12:04;;;;;;;4.90;2.27;;;21.50;50.00;;;;;;4980923;28;20184;-77
2021/03/30 09:14:30;;;;;;;8.87;2.20;;;21.40;50.00;;;;;;4982348;28;20674;-78
2021/03/30 09:17:18;;;;;;;5.73;2.27;;;21.40;51.00;;;;;;4982777;28;20192;-77
2021/03/30 09:19:49;;;;;;;5.47;2.20;;;21.70;50.50;;;;;;4988792;28;20179;-78
2021/03/30 09:27:31;;;;;;;4.13;2.87;;;22.10;47.80;;;;;;4983608;28;20176;-78
2021/03/30 09:29:59;;;;;;;4.50;2.43;;;22.00;47.80;;;;;;4981259;28;20195;-78
2021/03/30 09:32:26;;;;;;;4.73;1.83;;;22.20;48.20;;;;;;4981589;28;20274;-78
2021/03/30 09:34:52;;;;;;;5.97;2.10;;;22.30;45.60;;;;;;4982327;28;20163;-78
2021/03/30 09:37:18;;;;;;;2.10;1.60;;;22.50;44.00;;;;;;4979844;28;20211;-78
2021/03/30 09:39:45;;;;;;;2.70;1.80;;;22.40;43.30;;;;;;4981968;28;20606;-78
2021/03/30 09:42:11;;;;;;;3.10;1.90;;;22.10;40.70;;;;;;4982226;28;20173;-77
2021/03/30 09:44:45;;;;;;;4.50;1.93;;;22.00;42.40;;;;;;4979926;28;20172;-76
2021/03/30 09:47:14;;;;;;;2.87;1.53;;;22.20;41.30;;;;;;4982332;28;20202;-78
2021/03/30 09:49:42;;;;;;;2.07;1.33;;;22.40;38.90;;;;;;4977143;28;20204;-76
2021/03/30 09:52:08;;;;;;;3.37;1.70;;;22.30;41.90;;;;;;4976014;28;20689;-76
2021/03/30 09:54:43;;;;;;;2.17;1.60;;;22.30;41.10;;;;;;4976791;28;20180;-76
2021/03/30 09:57:21;;;;;;;5.47;2.30;;;22.50;40.60;;;;;;4977243;28;20266;-76
2021/03/30 09:59:48;;;;;;;9.43;2.20;;;22.60;41.70;;;;;;4976189;28;20176;-76
2021/03/30 10:02:23;;;;;;;8.20;2.23;;;22.70;41.20;;;;;;4977588;28;20260;-76
2021/03/30 10:04:53;;;;;;;3.17;1.70;;;22.70;39.90;;;;;;4978397;28;20265;-76
2021/03/30 10:07:20;;;;;;;2.37;1.73;;;22.20;38.70;;;;;;4978795;28;20192;-76
2021/03/30 10:09:59;;;;;;;4.53;2.37;;;22.10;40.80;;;;;;4975953;28;20259;-76
2021/03/30 10:12:29;;;;;;;3.80;1.70;;;22.40;41.30;;;;;;4977079;28;20221;-77
2021/03/30 10:14:56;;;;;;;4.43;1.80;;;22.40;39.60;;;;;;4975925;28;20176;-76
2021/03/30 10:17:23;;;;;;;2.30;1.60;;;22.30;38.80;;;;;;4977497;28;20678;-77
2021/03/30 10:19:50;;;;;;;3.40;1.53;;;22.50;39.70;;;;;;4977198;28;20539;-77
2021/03/30 10:22:35;;;;;;;1.97;1.40;;;22.50;39.40;;;;;;4977239;28;20173;-77
2021/03/30 10:25:08;;;;;;;4.03;1.57;;;22.70;40.80;;;;;;4976686;28;20179;-76
2021/03/30 10:27:35;;;;;;;3.00;1.97;;;22.90;40.20;;;;;;4975929;28;20185;-77
2021/03/30 10:30:01;;;;;;;2.87;2.20;;;23.00;39.00;;;;;;4977576;28;20185;-77
2021/03/30 10:32:31;;;;;;;2.50;1.90;;;23.10;40.20;;;;;;4977278;28;20176;-77
2021/03/30 10:34:57;;;;;;;7.97;2.07;;;23.10;43.50;;;;;;4977430;28;20165;-77
2021/03/30 10:37:24;;;;;;;5.63;2.17;;;23.20;40.10;;;;;;4977114;28;20197;-77
2021/03/30 10:39:49;;;;;;;4.57;2.30;;;23.20;39.00;;;;;;4975650;28;20182;-77
2021/03/30 10:42:19;;;;;;;3.40;2.13;;;23.30;38.60;;;;;;4977301;28;20545;-77
2021/03/30 10:44:47;;;;;;;2.20;1.90;;;23.40;40.30;;;;;;4977009;28;20175;-77
2021/03/30 10:47:21;;;;;;;4.77;1.97;;;23.70;40.00;;;;;;4976499;28;20207;-77
2021/03/30 10:49:49;;;;;;;7.83;1.80;;;23.80;39.80;;;;;;4978707;28;20254;-77
2021/03/30 10:52:21;;;;;;;5.50;1.73;;;23.90;39.30;;;;;;4977723;28;20692;-77
2021/03/30 10:54:48;;;;;;;5.60;1.90;;;23.90;40.10;;;;;;4977127;28;20655;-76
2021/03/30 10:57:16;;;;;;;3.23;1.87;;;24.30;38.90;;;;;;4976135;28;20685;-77
2021/03/30 10:59:45;;;;;;;5.33;1.60;;;24.20;38.40;;;;;;4975122;28;20177;-77
2021/03/30 11:02:11;;;;;;;4.00;1.50;;;24.00;39.40;;;;;;4987113;28;20646;-76
2021/03/30 11:04:41;;;;;;;3.07;1.30;;;24.20;39.40;;;;;;5006693;28;20179;-77
2021/03/30 11:07:08;;;;;;;3.00;1.27;;;24.40;39.20;;;;;;5014361;28;20241;-77
2021/03/30 11:09:34;;;;;;;2.97;1.20;;;24.40;38.20;;;;;;5014515;28;20549;-76
2021/03/30 11:12:00;;;;;;;5.97;1.30;;;24.20;37.50;;;;;;5014904;28;20179;-77
2021/03/30 11:14:26;;;;;;;2.63;1.27;;;24.30;36.90;;;;;;5030219;28;20242;-77
2021/03/30 11:16:52;;;;;;;4.90;1.40;;;24.10;37.50;;;;;;5014378;28;20197;-77
2021/03/30 11:19:18;;;;;;;4.00;1.03;;;24.30;39.70;;;;;;5006497;28;20558;-77
2021/03/30 11:21:45;;;;;;;2.50;0.90;;;24.40;37.20;;;;;;4996596;28;20172;-77
2021/03/30 11:24:16;;;;;;;3.00;1.10;;;24.40;36.90;;;;;;4979108;28;20186;-77
2021/03/30 11:26:47;;;;;;;2.07;1.17;;;24.30;36.90;;;;;;4976657;28;20194;-76
2021/03/30 11:29:20;;;;;;;4.60;1.10;;;24.50;37.10;;;;;;4976688;28;20214;-77
2021/03/30 11:32:02;;;;;;;2.10;1.30;;;24.60;37.10;;;;;;4977166;28;20165;-77
2021/03/30 11:37:14;;;;;;;4.70;1.00;;;25.10;37.00;;;;;;4995067;28;20191;-77
2021/03/30 11:39:39;;;;;;;2.10;1.10;;;25.20;37.10;;;;;;4994880;28;20160;-77
2021/03/30 11:42:06;;;;;;;3.40;1.10;;;25.50;35.50;;;;;;4994529;28;20672;-77
2021/03/30 11:44:32;;;;;;;2.20;1.30;;;25.50;35.00;;;;;;4994456;28;20351;-77
2021/03/30 11:46:59;;;;;;;2.90;1.30;;;25.50;38.70;;;;;;4995587;28;20254;-77
2021/03/30 11:49:26;;;;;;;7.70;1.50;;;26.00;38.10;;;;;;4994285;28;20262;-77
2021/03/30 11:51:54;;;;;;;4.60;1.10;;;26.20;35.70;;;;;;4995685;28;20176;-76
2021/03/30 11:54:20;;;;;;;2.93;1.30;;;25.90;38.00;;;;;;4997301;28;20256;-76
2021/03/30 11:56:45;;;;;;;4.30;1.13;;;25.90;36.70;;;;;;4995511;28;20207;-77
2021/03/30 11:59:11;;;;;;;3.20;1.00;;;26.00;34.60;;;;;;4996020;28;20280;-77
2021/03/30 12:01:39;;;;;;;4.53;0.93;;;26.20;34.80;;;;;;4998536;28;20196;-76
2021/03/30 12:04:05;;;;;;;3.90;1.43;;;26.60;35.70;;;;;;5012840;28;20614;-78
2021/03/30 12:06:32;;;;;;;2.90;1.27;;;26.80;34.00;;;;;;4994447;28;20204;-79
2021/03/30 12:08:58;;;;;;;2.23;1.30;;;27.00;37.40;;;;;;4975812;28;20572;-76
2021/03/30 12:11:23;;;;;;;6.30;1.20;;;27.00;35.90;;;;;;4975013;28;20239;-75
2021/03/30 12:13:49;;;;;;;2.30;1.00;;;27.10;36.00;;;;;;4974863;28;20201;-75
2021/03/30 12:16:14;;;;;;;2.07;1.10;;;27.10;35.00;;;;;;4974289;28;20279;-75
2021/03/30 12:18:40;;;;;;;2.53;1.00;;;27.40;36.20;;;;;;4974844;28;20181;-74
2021/03/30 12:21:06;;;;;;;3.13;1.10;;;27.30;34.70;;;;;;4975181;28;20178;-77
2021/03/30 12:23:31;;;;;;;11.83;2.07;;;27.50;35.70;;;;;;4974981;28;20626;-76
2021/03/30 12:25:57;;;;;;;3.90;1.30;;;28.20;36.10;;;;;;4974947;28;20229;-77
2021/03/30 12:28:23;;;;;;;4.03;1.70;;;28.80;34.00;;;;;;4975989;28;20640;-77
2021/03/30 12:30:49;;;;;;;8.27;1.50;;;29.20;33.10;;;;;;4973694;28;20192;-77
2021/03/30 12:33:15;;;;;;;3.47;1.30;;;29.30;32.00;;;;;;4973679;28;20208;-77
2021/03/30 12:35:41;;;;;;;2.83;1.50;;;29.70;34.20;;;;;;4974829;28;20194;-76
2021/03/30 12:38:07;;;;;;;6.77;1.23;;;29.50;31.40;;;;;;4975754;28;20181;-77
2021/03/30 12:40:35;;;;;;;4.07;1.20;;;29.30;32.80;;;;;;4976727;28;20181;-77
2021/03/30 12:43:00;;;;;;;8.90;1.50;;;29.10;31.90;;;;;;4978877;28;20184;-78
2021/03/30 12:45:27;;;;;;;3.53;1.90;;;29.10;32.80;;;;;;4982737;28;20304;-79
2021/03/30 12:47:52;;;;;;;5.53;1.70;;;28.70;33.00;;;;;;4981885;28;20182;-78
2021/03/30 12:50:18;;;;;;;4.37;1.47;;;29.00;32.80;;;;;;4982147;28;20192;-78
2021/03/30 12:52:44;;;;;;;4.37;1.57;;;28.90;32.80;;;;;;4981184;28;20211;-77
2021/03/30 12:55:13;;;;;;;2.27;1.37;;;29.40;33.00;;;;;;4981401;28;20236;-80
2021/03/30 12:57:39;;;;;;;5.63;1.30;;;29.90;31.80;;;;;;4981118;28;20215;-78
2021/03/30 13:00:06;;;;;;;2.40;1.50;;;29.60;32.30;;;;;;4981789;28;20195;-78
2021/03/30 13:02:33;;;;;;;9.53;1.67;;;29.70;33.00;;;;;;4978490;28;20184;-78
2021/03/30 13:04:59;;;;;;;3.37;1.37;;;30.30;32.40;;;;;;4978522;28;20192;-78
2021/03/30 13:07:25;;;;;;;3.50;1.47;;;30.10;30.60;;;;;;4977307;28;20174;-78
2021/03/30 13:09:51;;;;;;;3.90;1.20;;;29.50;31.60;;;;;;4975948;28;20695;-78
2021/03/30 13:12:18;;;;;;;2.17;1.43;;;29.80;32.90;;;;;;4975079;28;20186;-76
2021/03/30 13:14:43;;;;;;;2.93;1.23;;;30.10;30.00;;;;;;4973806;28;20180;-77
2021/03/30 13:17:09;;;;;;;2.50;1.20;;;30.20;29.80;;;;;;4975560;28;20213;-77